Time;durP1;ratioP1;P1;durP2;ratioP2;P2;SDS_P1;SDS_P2;PMS_P1;PMS_P2;Temp;Humidity;BMP_temperature;BMP_pressure;BME280_temperature;BME280_humidity;BME280_pressure;Samples;Min_cycle;Max_cycle;Signal;HPM_P1;HPM_P2
2022/05/30 00:00:43;;;;;;;1.58;0.40;;;;;;;24.97;28.97;101140.72;5104296;28;20023;-44
2022/05/30 00:03:12;;;;;;;1.13;0.40;;;;;;;24.93;29.55;101140.66;5103214;28;20160;-45
2022/05/30 00:05:46;;;;;;;1.38;0.70;;;;;;;24.99;29.23;101153.84;5102948;28;20023;-49
2022/05/30 00:08:15;;;;;;;1.05;0.30;;;;;;;24.97;29.39;101143.34;5093003;28;20042;-47
2022/05/30 00:10:43;;;;;;;0.68;0.30;;;;;;;25.01;29.25;101139.88;5102483;28;20469;-49
2022/05/30 00:13:12;;;;;;;1.75;0.40;;;;;;;25.02;29.17;101151.28;5104463;28;20074;-47
2022/05/30 00:15:41;;;;;;;1.83;0.50;;;;;;;25.02;29.55;101146.88;5104393;28;20118;-48
2022/05/30 00:18:09;;;;;;;1.23;0.50;;;;;;;24.93;29.51;101136.28;5102423;28;20031;-44
2022/05/30 00:20:38;;;;;;;0.52;0.30;;;;;;;24.96;29.32;101138.06;5085717;28;20035;-49
2022/05/30 00:23:07;;;;;;;0.50;0.30;;;;;;;24.95;29.70;101124.09;5103642;28;20357;-44
2022/05/30 00:25:35;;;;;;;0.52;0.40;;;;;;;24.97;29.33;101139.81;5103436;28;20075;-46
2022/05/30 00:28:02;;;;;;;1.20;0.35;;;;;;;24.96;29.35;101138.97;5103059;28;20529;-44
2022/05/30 00:30:30;;;;;;;1.15;0.40;;;;;;;24.94;29.46;101137.16;5102608;28;20031;-44
2022/05/30 00:32:59;;;;;;;0.55;0.22;;;;;;;24.97;29.38;101137.19;5102731;28;20027;-46
2022/05/30 00:35:27;;;;;;;1.05;0.30;;;;;;;24.90;29.51;101127.53;5103760;28;20035;-47
2022/05/30 00:37:56;;;;;;;0.82;0.50;;;;;;;24.95;29.40;101125.81;5103981;28;20504;-44
2022/05/30 00:40:24;;;;;;;1.02;0.38;;;;;;;24.88;29.66;101119.59;5102186;28;20031;-44
2022/05/30 00:42:51;;;;;;;1.40;0.50;;;;;;;24.95;29.56;101113.59;5092255;28;20032;-48
2022/05/30 00:45:20;;;;;;;1.00;0.35;;;;;;;24.91;29.52;101111.78;5103622;28;20088;-49
2022/05/30 00:47:50;;;;;;;1.00;0.40;;;;;;;24.91;29.63;101124.00;5087497;28;20295;-48
2022/05/30 00:50:19;;;;;;;0.93;0.40;;;;;;;24.88;29.88;101116.97;5107868;28;20040;-44
2022/05/30 00:52:47;;;;;;;1.20;0.25;;;;;;;24.90;29.65;101109.16;5096695;28;20034;-46
2022/05/30 00:55:19;;;;;;;1.83;0.40;;;;;;;24.93;29.70;101117.03;5107842;28;20142;-44
2022/05/30 00:57:49;;;;;;;1.52;0.40;;;;;;;24.93;29.72;101114.41;5107603;27;20100;-44
2022/05/30 01:00:19;;;;;;;1.88;0.40;;;;;;;24.91;29.76;101106.53;5105949;28;20032;-44
2022/05/30 01:06:30;;;;;;;1.00;0.35;;;;;;;24.99;29.55;101101.38;5107303;28;20037;-44
2022/05/30 01:08:25;;;;;;;1.42;0.38;;;;;;;24.87;29.53;101094.22;5100627;28;20036;-45
2022/05/30 01:10:53;;;;;;;3.60;0.40;;;;;;;24.89;29.79;101100.38;5105917;28;20405;-44
2022/05/30 01:13:23;;;;;;;1.05;0.30;;;;;;;24.92;29.52;101091.66;5107322;28;20024;-44
2022/05/30 01:15:51;;;;;;;1.75;0.40;;;;;;;24.80;29.74;101081.91;5107564;28;20028;-45
2022/05/30 01:18:42;;;;;;;1.23;0.50;;;;;;;24.92;29.41;101084.66;5088558;28;20480;-47
2022/05/30 01:21:38;;;;;;;0.88;0.40;;;;;;;24.94;29.70;101085.56;5103523;28;20040;-44
2022/05/30 01:24:28;;;;;;;2.65;0.35;;;;;;;24.79;29.84;101073.16;5104826;28;20051;-44
2022/05/30 01:27:33;;;;;;;2.05;0.50;;;;;;;24.86;29.89;101079.34;5107242;28;20031;-48
2022/05/30 01:30:06;;;;;;;3.03;0.50;;;;;;;24.87;29.46;101082.00;5105391;28;20385;-47
2022/05/30 01:32:35;;;;;;;1.33;0.40;;;;;;;24.81;29.89;101070.56;5106085;28;20028;-46
2022/05/30 01:35:04;;;;;;;1.30;0.47;;;;;;;24.83;29.69;101080.22;5106728;28;20055;-50
2022/05/30 01:37:32;;;;;;;1.60;0.40;;;;;;;24.79;29.53;101083.66;5091048;28;20024;-45
2022/05/30 01:40:01;;;;;;;0.63;0.40;;;;;;;24.80;29.86;101079.28;5105242;28;20080;-44
2022/05/30 01:42:29;;;;;;;1.33;0.40;;;;;;;24.78;29.86;101070.53;5106558;28;20055;-44
2022/05/30 01:44:58;;;;;;;2.38;0.30;;;;;;;24.78;29.71;101079.25;5106582;28;20046;-45
2022/05/30 01:47:25;;;;;;;1.25;0.40;;;;;;;24.76;29.91;101075.72;5105339;28;20035;-45
2022/05/30 01:49:53;;;;;;;1.58;0.43;;;;;;;24.77;29.56;101089.75;5106751;28;20083;-46
2022/05/30 01:52:20;;;;;;;0.77;0.30;;;;;;;24.67;29.82;101079.09;5106228;28;20388;-44
2022/05/30 01:54:48;;;;;;;3.10;0.55;;;;;;;24.66;29.54;101081.72;5106487;27;20045;-45
2022/05/30 01:57:17;;;;;;;1.83;0.60;;;;;;;24.63;29.74;101079.94;5106259;28;20055;-44
2022/05/30 01:59:45;;;;;;;1.85;0.47;;;;;;;24.67;29.78;101094.84;5106046;28;20031;-44
2022/05/30 02:02:14;;;;;;;0.93;0.38;;;;;;;24.69;29.76;101093.13;5106260;28;20116;-44
2022/05/30 02:04:42;;;;;;;0.98;0.40;;;;;;;24.76;29.72;101091.47;5106088;27;20024;-44
2022/05/30 02:07:11;;;;;;;0.73;0.32;;;;;;;24.73;29.99;101092.34;5105955;28;20046;-44
2022/05/30 02:09:39;;;;;;;1.10;0.40;;;;;;;24.77;29.69;101092.38;5106153;28;20042;-47
2022/05/30 02:12:08;;;;;;;0.93;0.40;;;;;;;24.71;29.92;101085.31;5104754;28;20047;-44
2022/05/30 02:14:37;;;;;;;1.75;0.50;;;;;;;24.70;29.66;101083.56;5106326;28;20031;-48
2022/05/30 02:17:06;;;;;;;1.55;0.68;;;;;;;24.75;29.68;101086.22;5104967;28;20035;-47
2022/05/30 02:19:40;;;;;;;0.82;0.30;;;;;;;24.69;29.72;101092.25;5105932;28;20031;-44
2022/05/30 02:22:12;;;;;;;1.52;0.65;;;;;;;24.72;29.79;101089.69;5105621;28;20042;-44
2022/05/30 02:24:41;;;;;;;1.38;0.60;;;;;;;24.61;30.11;101073.81;5105741;28;20035;-44
2022/05/30 02:27:11;;;;;;;0.65;0.30;;;;;;;24.67;29.82;101086.97;5105770;28;20169;-44
2022/05/30 02:29:40;;;;;;;1.25;0.40;;;;;;;24.67;30.10;101073.84;5105790;28;20055;-44
2022/05/30 02:32:09;;;;;;;1.33;0.50;;;;;;;24.66;30.06;101071.22;5105571;28;20035;-44
2022/05/30 02:37:25;;;;;;;1.05;0.40;;;;;;;24.65;30.04;101069.47;5105375;28;20065;-45
2022/05/30 02:39:54;;;;;;;3.22;0.50;;;;;;;24.61;30.07;101059.78;5105965;28;20028;-44
2022/05/30 02:42:22;;;;;;;1.75;0.43;;;;;;;24.71;29.79;101069.56;5094825;28;20039;-45
2022/05/30 02:44:51;;;;;;;3.65;0.57;;;;;;;24.69;29.78;101063.41;5104331;28;20076;-44
2022/05/30 02:47:21;;;;;;;2.13;0.50;;;;;;;24.66;29.92;101066.84;5103783;28;20031;-44
2022/05/30 02:49:49;;;;;;;1.45;0.40;;;;;;;24.63;29.74;101065.94;5087530;28;20027;-44
2022/05/30 02:52:18;;;;;;;2.60;0.40;;;;;;;24.60;29.80;101056.28;5105448;28;20142;-45
2022/05/30 02:54:45;;;;;;;1.00;0.40;;;;;;;24.63;29.65;101073.81;5105208;28;20110;-44
2022/05/30 02:57:14;;;;;;;2.92;0.50;;;;;;;24.60;29.98;101076.38;5090066;28;20140;-44
2022/05/30 02:59:42;;;;;;;0.90;0.40;;;;;;;24.59;29.81;101070.28;5093765;28;20073;-47
2022/05/30 03:02:11;;;;;;;1.30;0.40;;;;;;;24.63;29.68;101081.66;5105008;28;20027;-45
2022/05/30 03:04:40;;;;;;;1.23;0.40;;;;;;;24.62;29.80;101079.91;5105114;28;20034;-47
2022/05/30 03:07:08;;;;;;;1.27;0.57;;;;;;;24.54;29.62;101075.47;5104936;28;20036;-47
2022/05/30 03:09:38;;;;;;;1.65;0.40;;;;;;;24.55;30.15;101078.97;5104516;28;20031;-44
2022/05/30 03:12:07;;;;;;;1.30;0.38;;;;;;;24.54;30.07;101080.72;5104891;27;20040;-45
2022/05/30 03:14:36;;;;;;;1.23;0.40;;;;;;;24.57;29.58;101080.72;5104857;28;20084;-47
2022/05/30 03:17:05;;;;;;;1.52;0.43;;;;;;;24.51;29.93;101083.28;5104975;28;20031;-44
2022/05/30 03:19:32;;;;;;;2.47;0.60;;;;;;;24.51;30.04;101082.41;5104861;28;20027;-44
2022/05/30 03:22:00;;;;;;;0.93;0.45;;;;;;;24.44;29.90;101068.31;5104435;28;20031;-49
2022/05/30 03:24:29;;;;;;;1.38;0.43;;;;;;;24.50;29.84;101071.03;5096298;28;20036;-44
2022/05/30 03:26:58;;;;;;;2.53;0.50;;;;;;;24.49;29.94;101077.16;5104853;28;20491;-51
2022/05/30 03:29:26;;;;;;;1.17;0.30;;;;;;;24.52;29.67;101086.78;5104736;28;20104;-46
2022/05/30 03:31:54;;;;;;;3.05;0.70;;;;;;;24.45;29.70;101071.84;5104388;28;20031;-47
2022/05/30 03:34:23;;;;;;;0.47;0.28;;;;;;;24.48;29.90;101078.00;5104358;28;20072;-45
2022/05/30 03:36:51;;;;;;;1.17;0.47;;;;;;;24.47;29.84;101078.00;5104386;28;20032;-46
2022/05/30 03:39:20;;;;;;;1.40;0.30;;;;;;;24.46;30.16;101065.75;5104605;28;20024;-44
2022/05/30 03:41:48;;;;;;;1.25;0.60;;;;;;;24.51;29.69;101071.91;5104753;28;20031;-49
2022/05/30 03:44:17;;;;;;;0.50;0.30;;;;;;;24.53;29.78;101075.44;5104727;28;20088;-46
2022/05/30 03:46:44;;;;;;;0.70;0.30;;;;;;;24.53;29.50;101068.47;5104341;28;20471;-52
2022/05/30 03:49:13;;;;;;;1.88;0.47;;;;;;;24.50;30.11;101071.03;5104236;28;20126;-44
2022/05/30 03:51:41;;;;;;;0.85;0.30;;;;;;;24.48;29.72;101070.13;5104366;28;20047;-46
2022/05/30 03:54:10;;;;;;;1.85;0.50;;;;;;;24.50;29.76;101065.78;5103798;28;20027;-46
2022/05/30 03:56:38;;;;;;;2.00;0.43;;;;;;;24.52;29.77;101073.66;5104159;28;20051;-46
2022/05/30 03:59:07;;;;;;;1.90;0.60;;;;;;;24.47;29.62;101062.25;5104236;28;20023;-47
2022/05/30 04:01:35;;;;;;;1.58;0.50;;;;;;;24.43;29.79;101067.47;5103722;28;20038;-46
2022/05/30 04:04:03;;;;;;;2.40;0.50;;;;;;;24.46;29.89;101068.38;5104087;28;20416;-52
2022/05/30 04:06:31;;;;;;;0.60;0.43;;;;;;;24.46;29.91;101073.63;5103893;28;20032;-44
2022/05/30 04:09:00;;;;;;;2.67;0.55;;;;;;;24.43;29.99;101071.81;5104043;28;20038;-45
2022/05/30 04:11:28;;;;;;;1.80;0.47;;;;;;;24.42;30.00;101070.03;5104025;28;20245;-48
2022/05/30 04:13:57;;;;;;;0.65;0.30;;;;;;;24.45;29.59;101082.34;5104178;28;20024;-45
2022/05/30 04:16:25;;;;;;;0.68;0.40;;;;;;;24.46;29.98;101074.47;5103213;28;20036;-46
2022/05/30 04:18:54;;;;;;;2.00;0.60;;;;;;;24.45;29.54;101077.09;5102217;28;20032;-50
2022/05/30 04:21:23;;;;;;;4.10;0.95;;;;;;;24.40;29.97;101063.94;5102185;28;20038;-46
2022/05/30 04:23:51;;;;;;;1.42;0.30;;;;;;;24.45;29.67;101071.84;5107924;28;20032;-44
2022/05/30 04:26:18;;;;;;;1.92;0.47;;;;;;;24.45;29.97;101063.97;5108188;28;20142;-50
2022/05/30 04:28:47;;;;;;;0.35;0.25;;;;;;;24.47;29.88;101065.75;5108005;28;20481;-48
2022/05/30 04:31:15;;;;;;;1.15;0.50;;;;;;;24.45;29.83;101066.59;5107932;28;20028;-47
2022/05/30 04:33:44;;;;;;;1.33;0.50;;;;;;;24.43;30.00;101071.81;5107988;28;20038;-45
2022/05/30 04:36:14;;;;;;;0.50;0.20;;;;;;;24.46;29.85;101076.22;5107770;28;20039;-44
2022/05/30 04:38:41;;;;;;;1.15;0.45;;;;;;;24.47;30.12;101076.25;5107688;28;20115;-44
2022/05/30 04:41:10;;;;;;;1.10;0.40;;;;;;;24.45;29.67;101071.84;5108088;28;20483;-53
2022/05/30 04:43:38;;;;;;;1.23;0.30;;;;;;;24.39;29.97;101068.28;5107943;28;20024;-44
2022/05/30 04:46:07;;;;;;;0.93;0.40;;;;;;;24.40;30.02;101072.66;5107105;28;20411;-48
2022/05/30 04:48:35;;;;;;;0.40;0.30;;;;;;;24.42;30.08;101067.44;5107741;28;20063;-44
2022/05/30 04:51:04;;;;;;;1.73;0.40;;;;;;;24.43;29.85;101075.34;5107767;28;20032;-45
2022/05/30 04:53:34;;;;;;;2.35;0.50;;;;;;;24.43;30.18;101074.44;5107403;28;20038;-46
2022/05/30 04:56:01;;;;;;;1.65;0.40;;;;;;;24.38;29.92;101066.50;5107407;28;20031;-45
2022/05/30 04:58:30;;;;;;;0.95;0.35;;;;;;;24.43;30.16;101077.06;5107563;28;20088;-45
2022/05/30 05:01:01;;;;;;;0.75;0.38;;;;;;;24.42;29.97;101083.16;5107212;28;20031;-44
2022/05/30 05:03:30;;;;;;;2.03;0.60;;;;;;;24.40;30.26;101082.28;5107637;28;20512;-47
2022/05/30 05:06:04;;;;;;;2.28;0.50;;;;;;;24.44;29.83;101081.44;5107491;27;20065;-47
2022/05/30 05:08:38;;;;;;;1.30;0.38;;;;;;;24.46;29.82;101087.59;5107372;28;20374;-44
2022/05/30 05:11:17;;;;;;;1.27;0.40;;;;;;;24.48;30.10;101082.38;5107161;28;20477;-46
2022/05/30 05:13:46;;;;;;;1.38;0.57;;;;;;;24.49;29.94;101090.25;5106667;28;20119;-45
2022/05/30 05:16:15;;;;;;;1.98;0.47;;;;;;;24.48;30.03;101096.34;5106721;28;20054;-49
2022/05/30 05:18:43;;;;;;;2.10;0.52;;;;;;;24.47;29.91;101091.97;5105985;28;20465;-45
2022/05/30 05:21:18;;;;;;;2.55;0.70;;;;;;;24.45;30.00;101088.44;5106876;28;20035;-45
2022/05/30 05:23:47;;;;;;;1.73;0.60;;;;;;;24.39;30.16;101086.63;5106868;28;20128;-46
2022/05/30 05:26:16;;;;;;;0.93;0.40;;;;;;;24.47;30.06;101093.72;5106891;28;20031;-47
2022/05/30 05:28:43;;;;;;;0.22;0.22;;;;;;;24.50;29.76;101096.38;5106955;28;20028;-47
2022/05/30 05:31:15;;;;;;;1.67;0.47;;;;;;;24.33;30.26;101078.66;5106828;28;21073;-44
2022/05/30 05:33:44;;;;;;;2.28;0.50;;;;;;;24.54;30.15;101099.06;5105693;28;20067;-45
2022/05/30 05:36:12;;;;;;;3.72;0.55;;;;;;;24.60;30.01;101105.25;5106463;28;20475;-48
2022/05/30 05:38:41;;;;;;;0.80;0.40;;;;;;;24.60;30.13;101103.50;5106895;28;20114;-49
2022/05/30 05:41:10;;;;;;;1.00;0.40;;;;;;;24.65;29.85;101104.47;5106825;27;20034;-46
2022/05/30 05:43:38;;;;;;;0.82;0.50;;;;;;;24.64;29.78;101102.69;5106962;27;20468;-50
2022/05/30 05:46:12;;;;;;;1.75;0.40;;;;;;;24.62;30.15;101090.41;5106677;27;20116;-47
2022/05/30 05:48:41;;;;;;;1.42;0.35;;;;;;;24.71;30.20;101095.81;5106916;28;20020;-50
2022/05/30 05:51:09;;;;;;;1.05;0.47;;;;;;;24.75;30.02;101101.97;5106234;28;20027;-44
2022/05/30 05:53:37;;;;;;;1.10;0.40;;;;;;;24.83;30.00;101108.16;5106585;27;20035;-47
2022/05/30 05:56:20;;;;;;;0.80;0.30;;;;;;;24.95;30.16;101110.97;5104857;28;20400;-44
2022/05/30 05:58:49;;;;;;;3.88;0.50;;;;;;;25.01;29.78;101110.13;5106394;28;20193;-47
2022/05/30 06:01:20;;;;;;;1.88;0.50;;;;;;;25.04;29.98;101112.81;5104895;28;20024;-45
2022/05/30 06:03:49;;;;;;;0.85;0.43;;;;;;;25.06;30.31;101108.44;5105102;28;20137;-47
2022/05/30 06:06:17;;;;;;;1.38;0.50;;;;;;;25.12;30.06;101112.88;5104821;28;20046;-45
2022/05/30 06:08:45;;;;;;;1.42;0.57;;;;;;;25.16;30.55;101114.66;5106566;28;20028;-45
2022/05/30 06:11:13;;;;;;;1.33;0.40;;;;;;;25.24;30.16;101109.47;5105922;28;20067;-47
2022/05/30 06:13:43;;;;;;;1.15;0.52;;;;;;;25.27;30.41;101118.28;5106096;28;20035;-45
2022/05/30 06:16:15;;;;;;;6.65;1.00;;;;;;;25.33;30.81;101107.81;5105471;28;20124;-44
2022/05/30 06:18:43;;;;;;;4.13;0.98;;;;;;;25.36;30.28;101104.38;5105876;28;20023;-48
2022/05/30 06:21:11;;;;;;;1.80;0.60;;;;;;;25.41;30.51;101105.28;5106043;28;20019;-47
2022/05/30 06:23:39;;;;;;;3.42;0.80;;;;;;;25.48;30.20;101103.63;5092197;28;20385;-46
2022/05/30 06:26:09;;;;;;;3.42;0.40;;;;;;;25.51;30.24;101106.28;5105802;28;20045;-47
2022/05/30 06:28:38;;;;;;;4.13;0.70;;;;;;;25.53;29.71;101104.53;5105789;28;20034;-48
2022/05/30 06:31:09;;;;;;;3.38;0.57;;;;;;;25.52;29.80;101105.41;5104437;28;20080;-45
2022/05/30 06:33:38;;;;;;;2.70;1.02;;;;;;;25.58;29.79;101113.34;5105710;28;20106;-44
2022/05/30 06:36:08;;;;;;;3.10;0.88;;;;;;;25.65;29.52;101119.53;5104038;28;20032;-47
2022/05/30 06:38:37;;;;;;;2.15;0.40;;;;;;;25.63;29.45;101109.03;5105453;28;20027;-44
2022/05/30 06:41:26;;;;;;;3.05;0.65;;;;;;;25.71;29.49;101118.69;5105306;28;20490;-47
2022/05/30 06:43:56;;;;;;;2.80;0.50;;;;;;;25.70;29.36;101117.84;5105622;28;20031;-44
2022/05/30 06:46:24;;;;;;;2.15;0.60;;;;;;;25.74;29.48;101124.84;5105015;28;20034;-49
2022/05/30 06:48:55;;;;;;;2.28;0.75;;;;;;;25.79;29.63;101115.25;5105527;28;20024;-44
2022/05/30 06:51:25;;;;;;;2.08;0.55;;;;;;;25.78;29.26;101115.25;5105482;28;20020;-45
2022/05/30 06:53:53;;;;;;;3.80;0.52;;;;;;;25.83;29.17;101113.53;5105499;28;20027;-45
2022/05/30 06:56:23;;;;;;;3.03;0.70;;;;;;;25.85;29.25;101116.19;5103724;28;20028;-46
2022/05/30 06:58:52;;;;;;;4.30;0.73;;;;;;;25.87;29.03;101112.69;5104944;28;20047;-45
2022/05/30 07:01:22;;;;;;;4.65;0.70;;;;;;;25.91;29.14;101121.47;5105007;28;20461;-46
2022/05/30 07:03:50;;;;;;;4.85;0.60;;;;;;;25.96;28.90;101122.38;5105182;28;20430;-46
2022/05/30 07:06:23;;;;;;;3.42;0.70;;;;;;;25.94;29.14;101118.88;5105043;28;20404;-46
2022/05/30 07:08:51;;;;;;;2.33;0.70;;;;;;;26.00;28.91;101120.66;5105317;28;20176;-48
2022/05/30 07:11:21;;;;;;;3.53;0.80;;;;;;;25.99;29.05;101116.25;5104523;28;20048;-47
2022/05/30 07:13:50;;;;;;;2.25;0.65;;;;;;;26.07;28.71;101114.59;5104600;28;20024;-45
2022/05/30 07:16:22;;;;;;;3.03;0.68;;;;;;;26.09;28.89;101118.97;5104365;28;20032;-46
2022/05/30 07:18:49;;;;;;;3.28;0.75;;;;;;;26.12;28.80;101126.06;5104297;28;20039;-50
2022/05/30 07:21:18;;;;;;;1.42;0.57;;;;;;;26.13;28.95;101122.56;5104770;28;20042;-48
2022/05/30 07:23:51;;;;;;;1.65;0.50;;;;;;;26.20;28.75;101124.34;5104618;28;20035;-44
2022/05/30 07:26:21;;;;;;;2.60;0.60;;;;;;;26.21;28.70;101114.72;5104821;28;20027;-45
2022/05/30 07:28:51;;;;;;;2.33;0.70;;;;;;;26.23;28.72;101132.25;5104617;28;20481;-48
2022/05/30 07:31:21;;;;;;;2.00;0.70;;;;;;;26.27;28.93;101127.00;5104620;28;20032;-47
2022/05/30 07:33:50;;;;;;;2.42;0.80;;;;;;;26.30;28.77;101127.03;5104689;28;20218;-48
2022/05/30 07:36:29;;;;;;;2.45;0.90;;;;;;;26.36;28.92;101124.41;5104343;28;20496;-48
2022/05/30 07:38:58;;;;;;;3.30;0.88;;;;;;;26.37;28.58;101116.56;5104263;28;20028;-45
2022/05/30 07:41:31;;;;;;;3.30;0.60;;;;;;;26.41;28.69;101125.34;5104040;28;20389;-46
2022/05/30 07:44:00;;;;;;;2.10;0.60;;;;;;;26.44;28.62;101119.19;5104237;28;20032;-46
2022/05/30 07:46:28;;;;;;;3.67;1.13;;;;;;;26.50;28.82;101116.59;5104431;28;20019;-46
2022/05/30 07:48:57;;;;;;;2.25;0.60;;;;;;;26.52;28.80;101115.72;5104340;28;20105;-47
2022/05/30 07:51:25;;;;;;;3.25;0.70;;;;;;;26.58;28.45;101121.91;5103966;28;20023;-45
2022/05/30 07:53:54;;;;;;;2.22;0.75;;;;;;;26.54;28.93;101121.88;5104107;28;20031;-47
2022/05/30 07:56:22;;;;;;;2.97;0.70;;;;;;;26.59;28.58;101116.63;5104059;28;20032;-47
2022/05/30 07:58:51;;;;;;;4.68;0.98;;;;;;;26.58;28.58;101109.63;5103664;28;20451;-47
2022/05/30 08:01:21;;;;;;;2.67;0.95;;;;;;;26.66;28.76;101109.66;5103715;28;20020;-44
2022/05/30 08:03:51;;;;;;;4.38;0.63;;;;;;;26.67;27.87;101124.56;5103948;28;20040;-46
2022/05/30 08:06:23;;;;;;;2.00;0.60;;;;;;;26.71;27.75;101128.09;5103792;28;20042;-45
2022/05/30 08:08:52;;;;;;;2.58;0.52;;;;;;;26.63;27.44;101102.63;5104217;28;20038;-51
2022/05/30 08:11:22;;;;;;;2.28;0.80;;;;;;;26.71;27.49;101126.34;5103284;28;20178;-46
2022/05/30 08:13:51;;;;;;;2.92;0.75;;;;;;;26.71;27.50;101112.31;5102943;28;20039;-46
2022/05/30 08:16:23;;;;;;;3.05;0.80;;;;;;;26.68;28.06;101118.44;5103873;28;20043;-44
2022/05/30 08:18:51;;;;;;;3.65;0.70;;;;;;;26.74;27.83;101117.56;5104334;28;20502;-45
2022/05/30 08:21:20;;;;;;;3.15;0.70;;;;;;;26.75;27.84;101117.59;5103598;28;20043;-48
2022/05/30 08:23:49;;;;;;;3.15;0.70;;;;;;;26.71;27.42;101107.91;5103395;28;20070;-45
2022/05/30 08:26:17;;;;;;;1.67;0.55;;;;;;;26.77;27.61;101114.94;5102142;28;20032;-44
2022/05/30 08:28:46;;;;;;;2.03;0.68;;;;;;;26.82;27.58;101121.16;5103297;28;20031;-45
2022/05/30 08:31:15;;;;;;;2.53;0.80;;;;;;;26.79;27.57;101110.56;5085546;28;20024;-44
2022/05/30 08:33:44;;;;;;;1.45;0.40;;;;;;;26.83;27.21;101108.00;5102449;28;20096;-45
2022/05/30 08:36:14;;;;;;;2.03;0.45;;;;;;;26.84;27.35;101114.16;5102097;28;20035;-45
2022/05/30 08:38:42;;;;;;;3.50;0.57;;;;;;;26.88;27.15;101112.41;5088970;28;20036;-44
2022/05/30 08:41:54;;;;;;;1.20;0.60;;;;;;;26.91;27.34;101115.03;5103246;28;20035;-45
2022/05/30 08:44:03;;;;;;;1.13;0.38;;;;;;;26.93;27.64;101110.66;5103014;28;20055;-46
2022/05/30 08:46:57;;;;;;;1.20;0.40;;;;;;;26.92;26.88;101106.28;5102287;28;20031;-45
2022/05/30 08:49:42;;;;;;;1.27;0.47;;;;;;;26.91;26.68;101109.78;5093855;28;20043;-45
2022/05/30 08:52:32;;;;;;;2.47;0.68;;;;;;;26.97;27.02;101105.41;5102971;28;20085;-44
2022/05/30 08:55:10;;;;;;;2.22;0.60;;;;;;;27.01;26.55;101110.69;5099913;28;20118;-44
2022/05/30 08:57:57;;;;;;;1.38;0.60;;;;;;;27.04;26.04;101113.31;5103953;28;20039;-44
2022/05/30 09:00:51;;;;;;;2.05;0.80;;;;;;;26.92;25.90;101106.28;5103692;28;20485;-46
2022/05/30 09:03:21;;;;;;;1.70;0.75;;;;;;;26.72;26.81;101100.91;5098252;28;20047;-44
2022/05/30 09:05:55;;;;;;;1.83;0.70;;;;;;;26.53;26.82;101099.06;5103559;28;20397;-45
2022/05/30 09:08:30;;;;;;;2.50;0.60;;;;;;;26.26;26.82;101091.06;5103747;28;20031;-46
2022/05/30 09:11:04;;;;;;;3.65;0.98;;;;;;;26.14;27.11;101087.50;5106895;28;20036;-44
2022/05/30 09:13:46;;;;;;;1.42;0.47;;;;;;;26.18;27.64;101099.78;5107294;28;20027;-43
2022/05/30 09:16:35;;;;;;;3.92;0.63;;;;;;;26.11;27.38;101098.00;5076684;28;20445;-46
2022/05/30 09:19:07;;;;;;;2.83;0.80;;;;;;;25.94;27.73;101084.69;5105594;28;20112;-44
2022/05/30 09:21:36;;;;;;;2.85;0.68;;;;;;;25.98;27.53;101102.25;5105774;28;20030;-46
2022/05/30 09:24:05;;;;;;;1.30;0.50;;;;;;;25.90;27.57;101094.31;5105548;28;20189;-44
2022/05/30 09:26:40;;;;;;;2.42;0.77;;;;;;;25.86;27.99;101095.16;5089539;28;20042;-45
2022/05/30 09:29:18;;;;;;;2.90;0.80;;;;;;;25.99;27.55;101100.50;5088447;28;20031;-44
2022/05/30 09:31:47;;;;;;;2.08;0.73;;;;;;;26.01;27.49;101094.41;5106802;28;20490;-44
2022/05/30 09:34:35;;;;;;;2.70;0.60;;;;;;;25.99;27.22;101093.50;5105388;28;20047;-46
2022/05/30 09:37:03;;;;;;;2.85;0.50;;;;;;;26.00;27.73;101103.16;5106355;28;20038;-43
2022/05/30 09:39:44;;;;;;;1.13;0.50;;;;;;;26.13;27.28;101084.84;5106439;28;20728;-44
2022/05/30 09:42:32;;;;;;;2.53;0.70;;;;;;;26.11;26.55;101098.00;5105202;28;20035;-44
2022/05/30 09:45:13;;;;;;;2.05;0.50;;;;;;;25.93;27.13;101094.34;5105079;28;20472;-43
2022/05/30 09:48:02;;;;;;;1.25;0.55;;;;;;;25.93;26.95;101090.81;5107029;28;20469;-45
2022/05/30 09:50:31;;;;;;;1.88;0.65;;;;;;;25.79;27.04;101090.75;5105208;28;20027;-44
2022/05/30 09:53:00;;;;;;;2.30;0.77;;;;;;;25.65;27.09;101082.75;5106568;28;20182;-44
2022/05/30 09:55:35;;;;;;;2.50;0.80;;;;;;;25.70;27.75;101090.66;5105776;28;20063;-44
2022/05/30 09:58:06;;;;;;;3.00;0.65;;;;;;;25.65;27.98;101082.75;5095664;28;20034;-45
2022/05/30 10:00:39;;;;;;;1.75;0.45;;;;;;;25.72;27.94;101076.69;5074373;28;20066;-45
2022/05/30 10:03:26;;;;;;;1.85;0.52;;;;;;;25.80;27.37;101060.97;5104878;28;20751;-45
2022/05/30 10:06:13;;;;;;;2.30;0.70;;;;;;;26.02;27.16;101077.75;5102064;28;20032;-44
2022/05/30 10:08:42;;;;;;;2.15;0.50;;;;;;;25.99;27.89;101076.84;5121935;27;20465;-44
2022/05/30 10:11:11;;;;;;;1.40;0.70;;;;;;;26.10;27.30;101067.28;5105578;28;20122;-44
2022/05/30 10:13:42;;;;;;;2.03;0.73;;;;;;;26.14;26.95;101066.47;5105843;28;20031;-44
2022/05/30 10:16:12;;;;;;;0.80;0.45;;;;;;;26.14;27.00;101062.94;5106028;28;20122;-44
2022/05/30 10:18:55;;;;;;;2.78;0.60;;;;;;;26.09;27.40;101066.38;5104567;28;20023;-44
2022/05/30 10:28:14;;;;;;;2.63;0.43;;;;;;;26.15;26.83;101065.56;5105918;28;20032;-46
2022/05/30 10:28:20;;;;;;;2.13;0.70;;;;;;;26.01;27.51;101070.75;5105272;28;20477;-46
2022/05/30 10:30:47;;;;;;;2.83;0.88;;;;;;;26.09;27.21;101074.28;5105132;28;20035;-44
2022/05/30 10:33:34;;;;;;;2.20;0.60;;;;;;;26.18;27.16;101077.88;5104786;28;20024;-45
2022/05/30 10:36:21;;;;;;;1.88;0.60;;;;;;;26.27;26.69;101063.91;5104186;28;20034;-49
2022/05/30 10:38:51;;;;;;;3.40;0.70;;;;;;;26.21;26.62;101062.13;5097383;28;20150;-44
2022/05/30 10:41:42;;;;;;;2.25;0.68;;;;;;;26.05;26.54;101066.38;5105531;28;20027;-44
2022/05/30 10:44:16;;;;;;;2.22;0.55;;;;;;;25.93;26.69;101062.81;5101544;28;20042;-48
2022/05/30 10:47:04;;;;;;;1.40;0.50;;;;;;;26.03;26.67;101065.47;5104047;28;20476;-44
2022/05/30 10:49:45;;;;;;;2.45;0.80;;;;;;;26.01;26.68;101061.97;5098086;28;20031;-44
2022/05/30 10:52:27;;;;;;;1.73;0.32;;;;;;;25.93;26.74;101067.16;5103926;28;20658;-45
2022/05/30 10:55:16;;;;;;;2.75;0.75;;;;;;;25.88;27.59;101071.53;5103683;28;20027;-44
2022/05/30 10:58:05;;;;;;;0.88;0.30;;;;;;;25.99;27.25;101066.31;5099431;28;20040;-45
2022/05/30 11:00:38;;;;;;;1.85;0.55;;;;;;;26.08;27.45;101058.50;5099087;28;20031;-45
2022/05/30 11:03:17;;;;;;;1.85;0.60;;;;;;;26.20;26.69;101053.34;5104076;28;20389;-44
2022/05/30 11:05:51;;;;;;;3.15;1.05;;;;;;;26.30;27.18;101061.28;5105512;28;20051;-45
2022/05/30 11:08:26;;;;;;;1.45;0.50;;;;;;;26.36;26.87;101062.19;5103871;28;20032;-44
2022/05/30 11:11:08;;;;;;;2.42;0.60;;;;;;;26.38;26.80;101049.94;5103716;28;20046;-44
2022/05/30 11:13:59;;;;;;;4.32;0.60;;;;;;;26.43;25.98;101051.69;5086616;28;20031;-44
2022/05/30 11:16:34;;;;;;;1.50;0.68;;;;;;;26.24;26.34;101052.50;5087709;28;20431;-44
2022/05/30 11:19:16;;;;;;;3.53;0.70;;;;;;;26.07;26.56;101054.97;5103775;28;20027;-43
2022/05/30 11:21:52;;;;;;;3.17;0.50;;;;;;;25.90;27.19;101056.63;5103291;28;20043;-46
2022/05/30 11:24:21;;;;;;;2.63;0.77;;;;;;;25.93;27.06;101049.66;5104582;28;20032;-45
2022/05/30 11:27:09;;;;;;;3.80;0.70;;;;;;;26.00;26.95;101057.56;5104932;28;20031;-44
2022/05/30 11:29:59;;;;;;;1.67;0.50;;;;;;;26.06;27.07;101052.34;5100857;28;20067;-44
2022/05/30 11:32:46;;;;;;;1.65;0.50;;;;;;;26.04;26.97;101052.38;5100554;28;20032;-45
2022/05/30 11:35:25;;;;;;;3.00;0.68;;;;;;;25.87;27.00;101054.88;5101170;28;20432;-44
2022/05/30 11:38:31;;;;;;;1.92;0.80;;;;;;;25.89;27.45;101047.03;5102918;28;20061;-44
2022/05/30 11:41:19;;;;;;;2.03;0.70;;;;;;;25.78;27.38;101050.44;5099455;28;20044;-47
2022/05/30 11:43:59;;;;;;;3.42;0.50;;;;;;;25.69;27.24;101062.63;5103169;28;20031;-44
2022/05/30 11:46:37;;;;;;;1.45;0.68;;;;;;;25.76;28.18;101053.94;5104519;28;20465;-46
2022/05/30 11:49:27;;;;;;;2.78;0.70;;;;;;;25.83;27.54;101058.34;5090488;28;20444;-46
2022/05/30 11:51:56;;;;;;;1.88;0.40;;;;;;;25.86;27.67;101060.13;5100778;28;20035;-46
2022/05/30 11:54:46;;;;;;;2.40;0.70;;;;;;;25.87;27.44;101057.50;5103771;28;20768;-44
2022/05/30 11:57:40;;;;;;;1.40;0.45;;;;;;;25.70;27.64;101044.25;5080326;28;20059;-46